createdAt,value
2017-08-08T04:32:05.113Z,12.07
2017-08-08T04:34:33.379Z,11.07
2017-08-08T04:37:01.775Z,11.90
2017-08-08T04:39:30.043Z,12.40
2017-08-08T04:41:58.410Z,11.67
2017-08-08T04:44:26.706Z,12.63
2017-08-08T04:46:54.967Z,10.97
2017-08-08T04:49:23.351Z,11.47
2017-08-08T04:51:51.728Z,11.60
2017-08-08T04:54:19.984Z,11.23
2017-08-08T04:56:48.358Z,12.03
2017-08-08T04:59:16.635Z,11.77
2017-08-08T05:01:45.019Z,10.53
2017-08-08T05:04:13.310Z,11.50
2017-08-08T05:06:41.603Z,10.80
2017-08-08T05:09:10.495Z,11.00
2017-08-08T05:11:38.850Z,10.67
2017-08-08T05:14:07.134Z,10.73
2017-08-08T05:16:35.508Z,10.77
2017-08-08T05:19:03.788Z,11.30
2017-08-08T05:21:32.080Z,10.90
2017-08-08T05:24:00.429Z,10.90
2017-08-08T05:26:28.714Z,10.10
2017-08-08T05:28:57.090Z,11.50
2017-08-08T05:31:25.406Z,10.70
2017-08-08T05:33:54.467Z,10.93
2017-08-08T05:36:22.759Z,10.30
2017-08-08T05:38:51.038Z,11.17
2017-08-08T05:41:19.403Z,10.60
2017-08-08T05:43:47.780Z,11.77
2017-08-08T05:46:16.040Z,10.97
2017-08-08T05:48:44.338Z,10.97
2017-08-08T05:51:12.590Z,12.00
2017-08-08T05:53:40.979Z,11.63
2017-08-08T05:56:09.254Z,10.27
2017-08-08T05:58:37.635Z,10.47
2017-08-08T06:01:06.015Z,10.33
2017-08-08T06:03:34.274Z,10.63
2017-08-08T06:06:02.670Z,8.13
2017-08-08T06:08:30.930Z,10.10
2017-08-08T06:10:59.322Z,8.83
2017-08-08T06:13:27.798Z,8.10
2017-08-08T06:15:56.183Z,9.10
2017-08-08T06:18:24.439Z,7.83
2017-08-08T06:20:52.730Z,9.40
2017-08-08T06:23:20.987Z,9.10
2017-08-08T06:25:49.266Z,10.40
2017-08-08T06:28:17.559Z,10.90
2017-08-08T15:01:09.311Z,1.73
2017-08-08T15:03:38.359Z,1.70
2017-08-08T15:06:06.643Z,1.40
2017-08-08T15:08:34.910Z,1.80
2017-08-08T15:11:03.319Z,2.13
2017-08-08T15:13:31.570Z,1.57
2017-08-08T15:15:59.839Z,1.50
2017-08-08T15:18:28.220Z,1.20
2017-08-08T15:20:56.594Z,1.50
2017-08-08T15:23:24.880Z,1.60
2017-08-08T15:25:53.270Z,1.50
2017-08-08T15:28:21.528Z,1.30
2017-08-08T15:30:49.822Z,1.30
2017-08-08T15:33:18.115Z,1.37
2017-08-08T15:35:47.183Z,1.17
2017-08-08T15:38:15.450Z,1.43
2017-08-08T15:40:43.823Z,1.40
2017-08-08T15:43:12.108Z,1.70
2017-08-08T15:45:40.400Z,1.50
2017-08-08T15:48:08.659Z,1.53
2017-08-08T15:50:37.015Z,1.17
2017-08-08T15:53:05.321Z,1.30
2017-08-08T15:55:33.591Z,1.30
2017-08-08T15:58:01.867Z,1.10
2017-08-08T16:00:30.262Z,1.20
2017-08-08T16:02:58.531Z,1.10
2017-08-08T16:05:26.899Z,1.20
2017-08-08T16:07:55.175Z,1.23
2017-08-08T16:10:23.547Z,1.20
2017-08-08T16:12:51.831Z,1.10
2017-08-08T16:15:20.203Z,1.20
2017-08-08T16:17:48.489Z,1.00
2017-08-08T16:20:16.858Z,1.40
2017-08-08T16:22:45.243Z,1.40
2017-08-08T16:25:13.522Z,1.20
2017-08-08T16:27:42.017Z,1.20
2017-08-08T16:30:10.273Z,1.20
2017-08-08T16:32:38.555Z,1.33
2017-08-08T16:35:06.807Z,1.27
2017-08-08T16:37:35.107Z,1.17
2017-08-08T16:40:03.395Z,1.40
2017-08-08T16:42:31.690Z,1.33
2017-08-08T16:44:59.929Z,1.43
2017-08-08T16:47:28.271Z,1.30
2017-08-08T16:49:56.523Z,1.20
2017-08-08T16:52:25.698Z,1.30
2017-08-08T16:54:53.975Z,1.27
2017-08-08T16:57:22.242Z,1.10
2017-08-08T16:59:50.510Z,1.47
2017-08-08T17:02:19.315Z,1.10
2017-08-08T17:04:47.574Z,1.20
2017-08-08T17:07:15.867Z,1.20
2017-08-08T17:09:44.105Z,1.37
2017-08-08T17:12:12.403Z,1.50
2017-08-08T17:14:40.659Z,1.40
2017-08-08T17:17:08.956Z,1.30
2017-08-08T17:19:37.207Z,1.20
2017-08-08T17:22:05.608Z,1.40
2017-08-08T17:24:33.856Z,1.30
2017-08-08T17:27:02.165Z,1.60
2017-08-08T17:29:30.538Z,1.60
2017-08-08T17:31:58.787Z,1.23
2017-08-08T17:34:27.087Z,1.40
2017-08-08T17:36:55.399Z,1.60
2017-08-08T17:39:24.458Z,2.07
2017-08-08T17:41:52.742Z,1.10
2017-08-08T17:44:21.015Z,1.33
2017-08-08T17:46:49.273Z,1.17
2017-08-08T17:49:17.555Z,1.40
2017-08-08T17:51:46.068Z,1.40
2017-08-08T17:54:14.629Z,2.00
2017-08-08T17:56:43.143Z,1.20
2017-08-08T17:59:11.508Z,1.47
2017-08-08T18:01:39.842Z,1.77
2017-08-08T18:04:08.140Z,1.80
2017-08-08T18:06:36.574Z,1.27
2017-08-08T18:09:04.898Z,1.20
2017-08-08T18:11:34.190Z,1.83
2017-08-08T18:14:02.478Z,1.60
2017-08-08T18:16:30.763Z,1.67
2017-08-08T18:18:59.048Z,1.73
2017-08-08T18:21:27.303Z,1.70
2017-08-08T18:23:56.495Z,1.77
2017-08-08T18:26:24.995Z,1.70
2017-08-08T18:28:53.346Z,1.47
2017-08-08T18:31:22.533Z,1.90
2017-08-08T18:33:50.822Z,2.60
2017-08-08T18:36:19.122Z,1.57
2017-08-08T18:38:47.482Z,1.53
2017-08-08T18:41:15.854Z,1.73
2017-08-08T18:43:44.130Z,1.97
2017-08-08T18:46:12.506Z,1.40
2017-08-08T18:48:40.783Z,1.50
2017-08-08T18:51:09.062Z,1.90
2017-08-08T18:53:37.332Z,1.70
2017-08-08T18:56:05.607Z,1.23
2017-08-08T18:58:34.108Z,1.60
2017-08-08T19:01:02.501Z,2.17
2017-08-08T19:03:31.680Z,1.57
2017-08-08T19:06:00.059Z,2.00
2017-08-08T19:08:28.322Z,1.77
2017-08-08T19:10:56.607Z,2.10
2017-08-08T19:13:24.859Z,2.20
2017-08-08T19:15:53.264Z,2.00
2017-08-08T19:18:21.623Z,1.97
2017-08-08T19:20:49.995Z,1.80
2017-08-08T19:23:18.262Z,2.03
2017-08-08T19:25:46.652Z,1.90
2017-08-08T19:28:14.932Z,1.90
2017-08-08T19:30:43.222Z,1.80
2017-08-08T19:33:11.923Z,1.87
2017-08-08T19:35:41.671Z,2.07
2017-08-08T19:38:10.296Z,2.63
2017-08-08T19:40:38.880Z,2.47
2017-08-08T19:43:07.242Z,2.30
2017-08-08T19:45:35.514Z,2.03
2017-08-08T19:48:03.795Z,2.07
2017-08-08T19:50:32.083Z,1.87
2017-08-08T19:53:00.443Z,2.30
2017-08-08T19:55:28.767Z,2.07
2017-08-08T19:57:57.816Z,2.40
2017-08-08T20:00:26.118Z,2.00
2017-08-08T20:02:54.391Z,2.30
2017-08-08T20:05:22.743Z,3.03
2017-08-08T20:07:51.551Z,1.90
2017-08-08T20:10:20.040Z,1.73
2017-08-08T20:12:48.296Z,2.00
2017-08-08T20:15:17.475Z,1.60
2017-08-08T20:17:45.755Z,2.13
2017-08-08T20:20:14.364Z,2.57
2017-08-08T20:22:42.638Z,2.20
2017-08-08T20:25:10.987Z,1.70
2017-08-08T20:27:39.280Z,1.77
2017-08-08T20:30:07.559Z,1.83
2017-08-08T20:32:35.819Z,2.23
2017-08-08T20:35:04.094Z,2.60
2017-08-08T20:37:32.586Z,1.77
2017-08-08T20:40:00.950Z,2.30
2017-08-08T20:42:29.199Z,2.17
2017-08-08T20:44:57.475Z,2.23
2017-08-08T20:47:25.763Z,1.80
2017-08-08T20:49:54.010Z,2.27
2017-08-08T20:52:22.337Z,2.17
2017-08-08T20:54:50.595Z,1.77
2017-08-08T20:57:18.976Z,1.70
2017-08-08T20:59:47.231Z,2.10
2017-08-08T21:02:15.543Z,1.80
2017-08-08T21:04:43.828Z,2.33
2017-08-08T21:07:12.193Z,2.10
2017-08-08T21:09:40.450Z,2.30
2017-08-08T21:12:09.755Z,2.00
2017-08-08T21:14:38.027Z,1.87
2017-08-08T21:17:06.274Z,1.80
2017-08-08T21:19:34.559Z,2.30
2017-08-08T21:22:02.851Z,1.90
2017-08-08T21:24:31.234Z,1.93
2017-08-08T21:26:59.527Z,2.07
2017-08-08T21:29:27.783Z,2.23
2017-08-08T21:31:56.054Z,2.70
2017-08-08T21:34:24.334Z,2.03
2017-08-08T21:36:52.639Z,1.80
2017-08-08T21:39:21.656Z,1.90
2017-08-08T21:41:49.983Z,2.40
2017-08-08T21:44:18.270Z,2.33
2017-08-08T21:46:46.690Z,2.07
2017-08-08T21:49:14.994Z,1.97
2017-08-08T21:51:43.374Z,2.13
2017-08-08T21:54:11.825Z,2.30
2017-08-08T21:56:40.248Z,2.60
2017-08-08T21:59:08.515Z,1.60
2017-08-08T22:01:36.900Z,1.70
2017-08-08T22:04:05.576Z,2.50
2017-08-08T22:06:33.835Z,2.00
2017-08-08T22:09:02.222Z,2.33
2017-08-08T22:11:30.502Z,2.03
2017-08-08T22:13:58.865Z,2.37
2017-08-08T22:16:27.361Z,2.17
2017-08-08T22:18:55.670Z,2.20
2017-08-08T22:21:24.727Z,2.47
2017-08-08T22:23:52.983Z,2.20
2017-08-08T22:26:21.272Z,2.13
2017-08-08T22:28:49.531Z,1.80
2017-08-08T22:31:17.815Z,2.00
2017-08-08T22:33:46.083Z,2.03
2017-08-08T22:36:14.362Z,2.50
2017-08-08T22:38:42.631Z,2.17
2017-08-08T22:41:11.002Z,2.13
2017-08-08T22:43:39.290Z,2.47
